Time;durP1;ratioP1;P1;durP2;ratioP2;P2;SDS_P1;SDS_P2;PMS_P1;PMS_P2;Temp;Humidity;BMP_temperature;BMP_pressure;BME280_temperature;BME280_humidity;BME280_pressure;Samples;Min_cycle;Max_cycle;Signal;HPM_P1;HPM_P2
2023/05/16 00:02:08;;;;;;;4.10;2.80;;;;;;;11.89;100.00;98317.02;1672503;84;21003;-63
2023/05/16 00:04:35;;;;;;;3.45;3.15;;;;;;;11.92;100.00;98312.86;1674780;84;21024;-64
2023/05/16 00:07:02;;;;;;;3.37;3.02;;;;;;;11.91;100.00;98309.90;1644740;85;21056;-64
2023/05/16 00:09:28;;;;;;;4.20;2.73;;;;;;;11.88;100.00;98307.52;1674131;84;21028;-64
2023/05/16 00:11:55;;;;;;;2.60;2.40;;;;;;;11.90;100.00;98308.21;1675977;84;20941;-64
2023/05/16 00:14:21;;;;;;;2.95;2.52;;;;;;;11.89;100.00;98305.25;1679886;84;21056;-64
2023/05/16 00:16:47;;;;;;;2.80;2.60;;;;;;;11.82;100.00;98302.24;1678531;84;21489;-63
2023/05/16 00:19:14;;;;;;;3.67;2.42;;;;;;;11.81;100.00;98305.30;1679683;83;21125;-64
2023/05/16 00:21:40;;;;;;;3.20;2.52;;;;;;;11.81;100.00;98305.30;1679098;84;21142;-64
2023/05/16 00:24:07;;;;;;;2.58;2.37;;;;;;;11.68;100.00;98282.35;1673941;84;21017;-64
2023/05/16 00:26:34;;;;;;;3.02;2.65;;;;;;;11.68;100.00;98282.35;1675976;84;20979;-64
2023/05/16 00:29:01;;;;;;;2.92;2.58;;;;;;;11.80;100.00;98298.42;1671239;84;21029;-64
2023/05/16 00:31:27;;;;;;;3.15;2.70;;;;;;;11.81;100.00;98301.86;1671874;84;21051;-64
2023/05/16 00:33:54;;;;;;;2.55;2.35;;;;;;;11.83;100.00;98299.50;1635964;86;20983;-63
2023/05/16 00:36:20;;;;;;;2.85;2.65;;;;;;;11.89;100.00;98296.09;1665611;85;21501;-64
2023/05/16 00:38:47;;;;;;;2.90;2.70;;;;;;;11.93;100.00;98296.20;1641149;86;21549;-63
2023/05/16 00:41:13;;;;;;;3.25;2.95;;;;;;;11.86;100.00;98278.37;1640606;86;21504;-63
2023/05/16 00:43:39;;;;;;;3.40;2.80;;;;;;;11.96;100.00;98295.52;1668079;84;21058;-64
2023/05/16 00:46:05;;;;;;;3.17;2.98;;;;;;;11.96;100.00;98295.52;1669986;84;21057;-63
2023/05/16 00:48:33;;;;;;;2.80;2.60;;;;;;;11.94;100.00;98288.74;1668114;84;21037;-64
2023/05/16 00:51:00;;;;;;;;;;;;;;;11.94;100.00;98288.74;1676755;84;21043;-64
2023/05/16 00:53:26;;;;;;;3.17;2.87;;;;;;;11.91;100.00;98289.80;1677451;84;20174;-64
2023/05/16 00:55:54;;;;;;;3.40;3.10;;;;;;;11.93;100.00;98282.69;1679036;84;21012;-63
2023/05/16 00:58:21;;;;;;;3.10;2.80;;;;;;;11.94;100.00;98283.51;1638244;86;21161;-64
2023/05/16 01:00:49;;;;;;;3.30;3.00;;;;;;;11.91;100.00;98273.28;1671322;84;21091;-64
2023/05/16 01:03:15;;;;;;;3.47;3.17;;;;;;;11.96;100.00;98282.90;1677868;84;21104;-64
2023/05/16 01:05:42;;;;;;;3.63;3.33;;;;;;;11.94;100.00;98279.11;1669542;84;21082;-64
2023/05/16 01:08:08;;;;;;;3.45;3.05;;;;;;;11.94;100.00;98279.11;1676042;84;21063;-64
2023/05/16 01:11:08;;;;;;;3.90;3.60;;;;;;;11.94;100.00;98279.11;1675879;84;21051;-64
2023/05/16 01:13:44;;;;;;;4.45;3.67;;;;;;;11.93;100.00;98273.98;1670809;84;20991;-64
2023/05/16 01:16:20;;;;;;;3.75;3.45;;;;;;;11.96;100.00;98276.36;1670005;84;21204;-63
2023/05/16 01:18:53;;;;;;;4.42;4.03;;;;;;;11.90;100.00;98256.73;1676075;84;21646;-64
2023/05/16 01:21:27;;;;;;;4.95;4.40;;;;;;;12.06;100.00;98270.80;1678949;84;21054;-63
2023/05/16 01:24:15;;;;;;;4.05;3.75;;;;;;;12.09;100.00;98274.48;1671407;84;21137;-63
2023/05/16 01:26:43;;;;;;;4.08;3.70;;;;;;;12.09;100.00;98279.71;1625428;86;21044;-63
2023/05/16 01:29:10;;;;;;;4.60;4.22;;;;;;;12.08;100.00;98259.75;1628768;86;21594;-64
2023/05/16 01:31:36;;;;;;;4.85;4.35;;;;;;;12.12;100.00;98272.94;1628578;86;21079;-64
2023/05/16 01:34:02;;;;;;;4.00;3.70;;;;;;;12.16;100.00;98275.69;1630058;86;21111;-64
2023/05/16 01:36:56;;;;;;;4.58;4.17;;;;;;;12.20;100.00;98269.26;1633538;86;21590;-64
2023/05/16 01:39:53;;;;;;;5.22;4.03;;;;;;;12.22;100.00;98279.14;1630614;86;21099;-63
2023/05/16 01:42:22;;;;;;;4.85;4.42;;;;;;;12.22;100.00;98279.14;1625719;86;21069;-63
2023/05/16 01:45:07;;;;;;;4.80;4.35;;;;;;;12.26;100.00;98274.02;1629213;86;21071;-64
2023/05/16 01:47:37;;;;;;;4.40;4.03;;;;;;;12.17;100.00;98264.27;1628023;85;21511;-64
2023/05/16 01:50:14;;;;;;;5.12;4.47;;;;;;;12.23;100.00;98278.17;1630394;85;21652;-64
2023/05/16 01:52:47;;;;;;;4.47;4.08;;;;;;;12.23;100.00;98278.17;1627194;85;21015;-64
2023/05/16 01:55:17;;;;;;;4.65;4.25;;;;;;;12.23;100.00;98266.40;1633040;85;21196;-64
2023/05/16 01:57:45;;;;;;;4.70;4.30;;;;;;;12.25;100.00;98274.97;1628284;86;21068;-63
2023/05/16 02:00:12;;;;;;;4.85;4.45;;;;;;;12.26;100.00;98279.24;1634904;84;21474;-64
2023/05/16 02:02:38;;;;;;;4.72;4.35;;;;;;;12.27;100.00;98272.25;1677719;84;21094;-63
2023/05/16 02:05:06;;;;;;;5.05;4.55;;;;;;;12.18;100.00;98273.77;1673108;84;21065;-64
2023/05/16 02:07:33;;;;;;;4.87;4.47;;;;;;;12.14;100.00;98279.37;1678830;84;21594;-65
2023/05/16 02:09:59;;;;;;;4.75;4.28;;;;;;;12.13;100.00;98273.31;1646767;85;21046;-64
2023/05/16 02:12:25;;;;;;;3.98;3.67;;;;;;;12.06;100.00;98282.56;1641498;85;21526;-64
2023/05/16 02:14:51;;;;;;;3.98;3.67;;;;;;;12.06;100.00;98282.56;1679408;84;20985;-64
2023/05/16 02:17:17;;;;;;;3.58;3.27;;;;;;;12.00;100.00;98276.50;1672467;84;21161;-64
2023/05/16 02:19:44;;;;;;;3.25;2.95;;;;;;;11.90;100.00;98285.98;1676681;83;21038;-64
2023/05/16 02:22:10;;;;;;;3.27;3.00;;;;;;;11.84;100.00;98284.16;1676549;84;20981;-63
2023/05/16 02:24:37;;;;;;;2.92;2.72;;;;;;;11.84;100.00;98284.16;1672525;84;21612;-63
2023/05/16 02:27:03;;;;;;;2.52;2.33;;;;;;;11.90;100.00;98289.91;1673517;84;20976;-64
2023/05/16 02:29:30;;;;;;;2.60;2.40;;;;;;;11.90;100.00;98289.91;1672958;84;21515;-64
2023/05/16 02:31:57;;;;;;;2.42;2.22;;;;;;;11.92;100.00;98282.78;1677739;84;21024;-64
2023/05/16 02:34:23;;;;;;;1.80;1.70;;;;;;;11.91;100.00;98288.98;1675344;84;20969;-64
2023/05/16 02:36:50;;;;;;;1.92;1.75;;;;;;;11.91;100.00;98291.59;1676105;84;20973;-64
2023/05/16 02:39:16;;;;;;;1.70;1.60;;;;;;;11.92;100.00;98288.02;1674243;84;20981;-64
2023/05/16 02:41:42;;;;;;;1.77;1.67;;;;;;;11.93;100.00;98290.98;1671783;84;21039;-64
2023/05/16 02:44:09;;;;;;;1.22;1.12;;;;;;;11.91;100.00;98287.67;1671948;84;21001;-64
2023/05/16 02:46:35;;;;;;;1.20;1.10;;;;;;;11.82;100.00;98289.99;1676270;84;21464;-64
2023/05/16 02:49:02;;;;;;;1.42;1.32;;;;;;;11.76;100.00;98285.23;1641942;86;21485;-63
2023/05/16 02:51:28;;;;;;;1.45;1.10;;;;;;;11.71;100.00;98288.66;1675262;84;20941;-65
2023/05/16 02:54:01;;;;;;;2.58;0.98;;;;;;;11.72;100.00;98290.31;1670520;84;21007;-64
2023/05/16 02:56:27;;;;;;;1.05;0.90;;;;;;;11.72;100.00;98292.92;1666751;85;20995;-64
2023/05/16 02:58:55;;;;;;;1.32;1.15;;;;;;;11.71;100.00;98293.89;1675706;84;21028;-64
2023/05/16 03:01:21;;;;;;;;;;;;;;;11.58;100.00;98278.74;1672143;84;20990;-64
2023/05/16 03:03:47;;;;;;;0.90;0.90;;;;;;;11.61;100.00;98290.28;1673113;84;20159;-64
2023/05/16 03:06:13;;;;;;;1.50;1.10;;;;;;;11.60;100.00;98296.47;1671015;84;21644;-64
2023/05/16 03:08:40;;;;;;;1.00;1.00;;;;;;;11.59;100.00;98295.61;1676180;84;21563;-64
2023/05/16 03:11:06;;;;;;;1.32;1.22;;;;;;;11.56;100.00;98292.39;1678480;84;21548;-64
2023/05/16 03:13:32;;;;;;;1.20;1.10;;;;;;;11.55;100.00;98296.80;1672249;84;21073;-63
2023/05/16 03:16:00;;;;;;;1.22;1.12;;;;;;;11.52;100.00;98304.04;1674198;84;21120;-63
2023/05/16 03:18:26;;;;;;;1.10;1.00;;;;;;;11.49;100.00;98296.42;1673398;84;21008;-64
2023/05/16 03:20:53;;;;;;;5.33;1.17;;;;;;;11.43;100.00;98308.99;1673940;84;21598;-63
2023/05/16 03:23:20;;;;;;;1.00;0.90;;;;;;;11.43;100.00;98314.22;1674992;84;21087;-64
2023/05/16 03:25:46;;;;;;;1.87;1.25;;;;;;;11.43;100.00;98312.91;1678444;84;21507;-63
2023/05/16 03:28:13;;;;;;;1.52;1.42;;;;;;;11.45;100.00;98323.23;1676452;84;21475;-63
2023/05/16 03:30:39;;;;;;;2.35;1.57;;;;;;;11.43;100.00;98319.45;1677449;84;21594;-64
2023/05/16 03:33:06;;;;;;;1.70;1.40;;;;;;;11.42;100.00;98320.38;1682111;84;22037;-63
2023/05/16 03:35:35;;;;;;;1.50;1.40;;;;;;;11.39;100.00;98328.44;1676251;84;20957;-64
2023/05/16 03:38:02;;;;;;;2.22;1.92;;;;;;;11.32;100.00;98329.84;1674792;84;21531;-64
2023/05/16 03:40:29;;;;;;;2.33;2.12;;;;;;;11.34;100.00;98334.95;1678430;84;21066;-63
2023/05/16 03:42:55;;;;;;;2.80;1.80;;;;;;;11.33;100.00;98326.28;1676624;84;20961;-63
2023/05/16 03:45:22;;;;;;;2.50;2.05;;;;;;;11.30;100.00;98326.50;1671882;84;21000;-63
2023/05/16 03:47:49;;;;;;;2.22;2.02;;;;;;;11.29;100.00;98335.30;1674081;84;21083;-64
2023/05/16 03:50:16;;;;;;;4.70;2.30;;;;;;;11.29;100.00;98335.30;1650776;86;20999;-64
2023/05/16 03:52:42;;;;;;;2.58;2.10;;;;;;;11.30;100.00;98346.58;1644000;86;20995;-63
2023/05/16 03:55:09;;;;;;;2.45;2.20;;;;;;;11.27;100.00;98339.79;1676584;84;20981;-63
2023/05/16 03:57:37;;;;;;;7.35;3.15;;;;;;;11.25;100.00;98335.62;1677211;83;21059;-63
2023/05/16 04:00:08;;;;;;;2.62;2.42;;;;;;;11.16;100.00;98330.59;1677808;84;21546;-63
2023/05/16 04:02:34;;;;;;;1.95;1.70;;;;;;;11.04;100.00;98345.84;1679270;84;22275;-63
2023/05/16 04:05:00;;;;;;;2.80;2.50;;;;;;;10.93;100.00;98350.03;1678339;84;22352;-64
2023/05/16 04:07:27;;;;;;;4.62;3.87;;;;;;;10.91;100.00;98344.08;1677321;84;21759;-63
2023/05/16 04:09:55;;;;;;;0.90;0.80;;;;;;;10.88;100.00;98356.52;1676048;84;21546;-64
2023/05/16 04:12:21;;;;;;;1.72;1.20;;;;;;;10.83;100.00;98351.61;1676073;84;21416;-63
2023/05/16 04:14:48;;;;;;;0.85;0.78;;;;;;;10.81;100.00;98358.73;1676051;84;20996;-63
2023/05/16 04:17:14;;;;;;;0.40;0.40;;;;;;;10.77;100.00;98358.58;1679471;84;21554;-63
2023/05/16 04:19:40;;;;;;;1.37;0.93;;;;;;;10.74;100.00;98365.31;1672829;84;21638;-63
2023/05/16 04:22:07;;;;;;;1.55;0.60;;;;;;;10.70;100.00;98366.48;1670013;84;21778;-64
2023/05/16 04:24:33;;;;;;;1.95;0.90;;;;;;;10.63;100.00;98376.50;1670156;84;21519;-64
2023/05/16 04:27:07;;;;;;;2.12;1.57;;;;;;;10.53;100.00;98375.00;1670052;84;21060;-64
2023/05/16 04:29:31;;;;;;;2.25;1.50;;;;;;;10.46;100.00;98382.05;1668894;84;21549;-64
2023/05/16 04:31:57;;;;;;;1.85;1.60;;;;;;;10.40;100.00;98385.91;1668070;84;21119;-64
2023/05/16 04:34:26;;;;;;;1.80;1.70;;;;;;;10.33;100.00;98382.03;1674258;84;21038;-63
2023/05/16 04:36:53;;;;;;;2.42;1.20;;;;;;;10.28;100.00;98389.35;1672423;84;21179;-64
2023/05/16 04:39:19;;;;;;;3.95;1.17;;;;;;;10.27;100.00;98383.75;1677148;84;21557;-64
2023/05/16 04:41:45;;;;;;;1.07;0.98;;;;;;;10.25;100.00;98390.80;1675984;83;21604;-65
2023/05/16 04:44:11;;;;;;;1.45;1.27;;;;;;;10.30;100.00;98390.06;1677685;84;21031;-64
2023/05/16 04:46:38;;;;;;;1.20;1.10;;;;;;;10.35;100.00;98394.98;1677152;84;21615;-64
2023/05/16 04:49:05;;;;;;;1.62;1.00;;;;;;;10.36;100.00;98400.08;1672819;83;21001;-65
2023/05/16 04:51:32;;;;;;;0.70;0.70;;;;;;;10.33;100.00;98397.68;1672466;84;21838;-63
2023/05/16 04:53:59;;;;;;;2.55;0.50;;;;;;;10.33;100.00;98397.68;1673561;84;21031;-65
2023/05/16 04:56:26;;;;;;;0.90;0.70;;;;;;;10.36;100.00;98389.64;1675678;83;21065;-63
2023/05/16 04:58:53;;;;;;;8.00;0.62;;;;;;;10.38;100.00;98400.81;1677421;84;21012;-64
2023/05/16 05:01:20;;;;;;;1.25;0.70;;;;;;;10.40;100.00;98398.95;1678893;84;21042;-64
2023/05/16 05:03:49;;;;;;;1.62;0.90;;;;;;;10.44;100.00;98410.00;1675339;83;21597;-64
2023/05/16 05:06:15;;;;;;;1.02;0.70;;;;;;;10.48;100.00;98404.48;1673331;84;20987;-63
2023/05/16 05:08:41;;;;;;;0.50;0.42;;;;;;;10.47;100.00;98413.27;1677182;84;21048;-63
2023/05/16 05:11:07;;;;;;;3.60;0.40;;;;;;;10.49;100.00;98411.36;1675609;84;21023;-64
2023/05/16 05:13:33;;;;;;;0.40;0.33;;;;;;;10.49;100.00;98411.36;1676219;84;21025;-63
2023/05/16 05:16:00;;;;;;;0.30;0.30;;;;;;;10.53;100.00;98424.59;1671302;84;20960;-63
2023/05/16 05:18:27;;;;;;;1.20;0.40;;;;;;;10.51;100.00;98418.63;1670350;84;21012;-63
2023/05/16 05:20:53;;;;;;;1.15;0.40;;;;;;;10.57;100.00;98421.77;1675895;84;21538;-64
2023/05/16 05:23:22;;;;;;;0.30;0.30;;;;;;;10.60;100.00;98430.69;1632772;85;21101;-63
2023/05/16 05:25:47;;;;;;;0.75;0.70;;;;;;;10.52;100.00;98416.37;1673689;84;21031;-63
2023/05/16 05:28:15;;;;;;;0.60;0.50;;;;;;;10.65;100.00;98432.05;1672243;84;21525;-63
2023/05/16 05:30:43;;;;;;;1.67;0.55;;;;;;;10.74;100.00;98430.59;1676654;84;21133;-65
2023/05/16 05:33:11;;;;;;;0.50;0.50;;;;;;;10.78;100.00;98431.20;1668944;84;21033;-65
2023/05/16 05:35:39;;;;;;;0.70;0.60;;;;;;;10.77;100.00;98440.81;1644493;85;21131;-65
2023/05/16 05:38:05;;;;;;;2.63;1.47;;;;;;;10.76;100.00;98436.55;1668912;84;21318;-64
2023/05/16 05:40:32;;;;;;;1.40;0.80;;;;;;;10.76;100.00;98446.98;1664535;85;21622;-64
2023/05/16 05:42:58;;;;;;;0.60;0.50;;;;;;;10.84;100.00;98451.22;1666635;84;21080;-64
2023/05/16 05:45:24;;;;;;;1.75;0.75;;;;;;;10.87;100.00;98460.14;1668612;84;21073;-64
2023/05/16 05:47:50;;;;;;;0.72;0.70;;;;;;;10.89;100.00;98453.02;1665283;84;21533;-64
2023/05/16 05:50:17;;;;;;;0.55;0.55;;;;;;;10.95;100.00;98463.06;1667387;84;21045;-64
2023/05/16 05:52:43;;;;;;;0.60;0.60;;;;;;;11.01;100.00;98463.56;1631973;86;21008;-64
2023/05/16 05:55:09;;;;;;;1.82;0.65;;;;;;;10.99;100.00;98471.52;1669589;84;20999;-65
2023/05/16 05:57:35;;;;;;;1.37;0.80;;;;;;;11.01;100.00;98481.84;1666755;84;21484;-65
2023/05/16 06:00:04;;;;;;;1.70;0.70;;;;;;;11.04;100.00;98477.74;1667967;85;21022;-64
2023/05/16 06:02:30;;;;;;;0.85;0.85;;;;;;;11.07;100.00;98482.75;1669175;84;20996;-63
2023/05/16 06:04:58;;;;;;;0.60;0.60;;;;;;;11.16;100.00;98486.02;1636909;86;21586;-64
2023/05/16 06:07:25;;;;;;;1.55;0.80;;;;;;;11.14;100.00;98493.13;1632592;86;21498;-65
2023/05/16 06:09:51;;;;;;;0.90;0.90;;;;;;;11.20;100.00;98498.78;1666911;84;21529;-65
2023/05/16 06:12:17;;;;;;;1.20;1.10;;;;;;;11.20;100.00;98496.61;1665248;84;21662;-64
2023/05/16 06:14:43;;;;;;;2.58;1.32;;;;;;;11.12;100.00;98515.45;1670287;84;21383;-66
2023/05/16 06:17:10;;;;;;;1.47;1.27;;;;;;;11.12;100.00;98515.45;1668527;84;20991;-64
2023/05/16 06:19:36;;;;;;;1.95;1.32;;;;;;;11.20;100.00;98514.91;1670625;84;21079;-64
2023/05/16 06:22:02;;;;;;;3.15;1.40;;;;;;;11.15;100.00;98523.08;1664261;84;21035;-63
2023/05/16 06:24:30;;;;;;;1.90;1.52;;;;;;;11.18;100.00;98533.80;1654382;85;21125;-64
2023/05/16 06:26:56;;;;;;;1.65;1.50;;;;;;;11.19;100.00;98528.92;1637779;86;20974;-65
2023/05/16 06:29:23;;;;;;;2.55;1.77;;;;;;;11.08;100.00;98537.96;1635730;86;21003;-64
2023/05/16 06:31:49;;;;;;;2.10;1.90;;;;;;;11.03;100.00;98550.49;1633166;86;21003;-64
2023/05/16 06:34:15;;;;;;;2.35;1.50;;;;;;;10.92;100.00;98565.12;1628644;86;21509;-64
2023/05/16 06:36:43;;;;;;;3.12;1.80;;;;;;;10.88;100.00;98576.70;1629528;86;21025;-64
2023/05/16 06:39:09;;;;;;;4.37;2.25;;;;;;;10.83;100.00;98581.39;1634069;86;20936;-65
2023/05/16 06:41:42;;;;;;;1.32;1.20;;;;;;;10.78;100.00;98586.08;1630341;86;21003;-64
2023/05/16 06:44:05;;;;;;;1.65;1.20;;;;;;;10.76;100.00;98586.67;1641842;86;20995;-64
2023/05/16 06:46:34;;;;;;;1.65;0.98;;;;;;;10.73;100.00;98598.63;1632122;86;21132;-65
2023/05/16 06:49:02;;;;;;;1.07;0.98;;;;;;;10.71;100.00;98600.02;1640045;86;21408;-64
2023/05/16 06:51:28;;;;;;;1.35;0.88;;;;;;;10.76;100.00;98608.86;1634966;86;20999;-64
2023/05/16 06:53:54;;;;;;;0.70;0.70;;;;;;;10.81;100.00;98602.88;1633772;85;21459;-64
2023/05/16 06:56:22;;;;;;;0.85;0.62;;;;;;;10.87;100.00;98608.16;1639612;85;21034;-64
2023/05/16 06:58:52;;;;;;;0.80;0.75;;;;;;;10.82;100.00;98628.03;1640748;86;20944;-64
2023/05/16 07:01:17;;;;;;;2.47;0.82;;;;;;;10.85;100.00;98632.22;1609487;87;21732;-64
2023/05/16 07:03:44;;;;;;;0.88;0.50;;;;;;;10.79;100.00;98637.37;1638822;85;20990;-64
2023/05/16 07:06:10;;;;;;;1.60;1.10;;;;;;;10.79;100.00;98645.21;1631605;86;21034;-65
2023/05/16 07:08:36;;;;;;;1.35;1.20;;;;;;;10.75;100.00;98661.55;1612047;87;21109;-64
2023/05/16 07:11:05;;;;;;;1.10;1.00;;;;;;;10.74;100.00;98665.55;1641059;87;21387;-64
2023/05/16 07:13:31;;;;;;;1.25;0.90;;;;;;;10.79;100.00;98673.94;1638325;86;21535;-64
2023/05/16 07:15:57;;;;;;;1.30;1.20;;;;;;;10.81;100.00;98681.65;1632985;86;21010;-64
2023/05/16 07:18:23;;;;;;;0.75;0.70;;;;;;;10.77;100.00;98694.08;1607151;88;21081;-65
2023/05/16 07:20:50;;;;;;;2.27;1.72;;;;;;;10.84;100.00;98703.20;1635146;86;20987;-65
2023/05/16 07:23:16;;;;;;;2.60;2.40;;;;;;;10.91;100.00;98700.55;1600137;88;20981;-64
2023/05/16 07:25:45;;;;;;;4.55;2.72;;;;;;;10.92;100.00;98710.08;1616078;86;21560;-64
2023/05/16 07:28:11;;;;;;;4.25;3.85;;;;;;;10.90;100.00;98707.19;1639048;86;21112;-64
2023/05/16 07:30:38;;;;;;;3.75;3.30;;;;;;;10.91;100.00;98708.86;1639834;86;21014;-64
2023/05/16 07:33:04;;;;;;;3.98;3.45;;;;;;;10.93;100.00;98713.05;1643908;86;21075;-64
2023/05/16 07:35:31;;;;;;;7.15;3.65;;;;;;;10.93;100.00;98720.87;1641318;85;21011;-64
2023/05/16 07:37:57;;;;;;;4.15;3.72;;;;;;;10.94;100.00;98714.71;1644720;86;21037;-64
2023/05/16 07:40:28;;;;;;;5.33;4.83;;;;;;;11.01;100.00;98723.45;1645081;86;20939;-64
2023/05/16 07:42:54;;;;;;;4.00;3.65;;;;;;;11.08;100.00;98722.95;1642325;86;21060;-64
2023/05/16 07:45:20;;;;;;;3.47;3.17;;;;;;;11.08;100.00;98726.05;1642225;85;20940;-63
2023/05/16 07:47:47;;;;;;;5.83;3.30;;;;;;;11.06;100.00;98725.30;1646727;84;20987;-64
2023/05/16 07:50:16;;;;;;;3.05;2.85;;;;;;;11.08;100.00;98735.19;1643105;85;21066;-63
2023/05/16 07:52:43;;;;;;;4.03;3.05;;;;;;;11.09;100.00;98748.16;1641815;84;21057;-63
2023/05/16 07:55:09;;;;;;;3.50;3.20;;;;;;;11.14;100.00;98754.38;1640720;85;20980;-62
2023/05/16 07:57:36;;;;;;;3.10;2.90;;;;;;;11.14;100.00;98750.45;1643525;85;21017;-63
2023/05/16 08:00:06;;;;;;;2.95;2.75;;;;;;;11.19;100.00;98754.92;1646810;85;21080;-62
2023/05/16 08:02:34;;;;;;;3.12;2.80;;;;;;;11.26;100.00;98756.20;1643078;85;21067;-64
2023/05/16 08:05:01;;;;;;;2.40;2.20;;;;;;;11.30;100.00;98765.51;1613528;86;21068;-66
2023/05/16 08:07:31;;;;;;;2.30;2.10;;;;;;;11.34;100.00;98780.06;1645266;84;21069;-62
2023/05/16 08:09:55;;;;;;;1.80;1.70;;;;;;;11.38;100.00;98782.84;1640776;85;21116;-65
2023/05/16 08:12:23;;;;;;;1.90;1.72;;;;;;;11.40;100.00;98788.80;1640082;86;21543;-63
2023/05/16 08:14:50;;;;;;;1.67;1.47;;;;;;;11.37;100.00;98795.55;1641219;84;21056;-70
2023/05/16 08:17:16;;;;;;;2.15;1.52;;;;;;;11.29;100.00;98797.81;1641254;86;21074;-63
2023/05/16 08:19:42;;;;;;;1.40;1.30;;;;;;;11.29;100.00;98797.81;1642209;86;20980;-68
2023/05/16 08:22:10;;;;;;;1.52;1.40;;;;;;;11.37;100.00;98806.00;1641886;85;21517;-63
2023/05/16 08:24:37;;;;;;;1.45;1.02;;;;;;;11.42;100.00;98815.66;1618375;86;21095;-62
2023/05/16 08:27:05;;;;;;;1.25;1.10;;;;;;;11.35;100.00;98815.70;1669621;84;21477;-63
2023/05/16 08:29:31;;;;;;;;;;;;;;;11.28;100.00;98827.48;1681996;84;21071;-63
2023/05/16 08:31:58;;;;;;;2.37;1.43;;;;;;;11.26;100.00;98816.31;1676557;84;20152;-62
2023/05/16 08:34:24;;;;;;;1.90;1.70;;;;;;;11.21;100.00;98826.22;1672922;84;21010;-63
2023/05/16 08:36:53;;;;;;;3.50;1.37;;;;;;;11.22;100.00;98822.66;1639206;86;21061;-68
2023/05/16 08:39:32;;;;;;;1.85;1.40;;;;;;;11.23;100.00;98834.80;1670367;84;21515;-64
2023/05/16 08:41:58;;;;;;;2.10;1.52;;;;;;;11.29;100.00;98837.02;1671312;84;21398;-64
2023/05/16 08:44:26;;;;;;;1.75;1.50;;;;;;;11.30;100.00;98843.08;1669226;84;21687;-65
2023/05/16 08:46:53;;;;;;;2.10;1.72;;;;;;;11.27;100.00;98853.73;1630136;86;21018;-62
2023/05/16 08:49:22;;;;;;;2.25;1.80;;;;;;;11.26;100.00;98864.66;1640028;86;21034;-63
2023/05/16 08:51:52;;;;;;;2.70;1.60;;;;;;;11.23;100.00;98860.06;1672466;84;21080;-63
2023/05/16 08:54:18;;;;;;;2.35;1.60;;;;;;;11.29;100.00;98876.22;1673612;83;20986;-64
2023/05/16 08:56:48;;;;;;;2.02;1.67;;;;;;;11.33;100.00;98872.45;1673217;84;22396;-65
2023/05/16 08:59:16;;;;;;;1.65;1.30;;;;;;;11.41;100.00;98878.03;1671944;84;21028;-64
2023/05/16 09:01:43;;;;;;;1.65;1.40;;;;;;;11.82;100.00;98873.69;1673973;84;21016;-64
2023/05/16 09:04:16;;;;;;;2.33;1.67;;;;;;;11.82;100.00;98873.69;1674101;84;21064;-64
2023/05/16 09:06:45;;;;;;;1.77;1.20;;;;;;;12.11;100.00;98871.77;1635115;86;21054;-64
2023/05/16 09:09:13;;;;;;;2.35;1.50;;;;;;;12.51;100.00;98871.20;1619985;85;21065;-64
2023/05/16 09:11:43;;;;;;;1.98;1.37;;;;;;;12.52;100.00;98879.44;1669600;84;21057;-63
2023/05/16 09:14:11;;;;;;;2.45;1.37;;;;;;;12.52;100.00;98879.44;1672266;84;21516;-63
2023/05/16 09:16:38;;;;;;;3.17;1.30;;;;;;;12.45;100.00;98890.42;1676465;84;20980;-63
2023/05/16 09:19:07;;;;;;;1.50;1.40;;;;;;;12.38;100.00;98899.62;1673694;83;21041;-64
2023/05/16 09:21:35;;;;;;;1.72;1.62;;;;;;;12.33;100.00;98904.36;1672579;84;21100;-63
2023/05/16 09:24:06;;;;;;;2.55;1.37;;;;;;;12.31;100.00;98909.69;1676273;84;21058;-65
2023/05/16 09:26:39;;;;;;;2.55;1.20;;;;;;;12.27;100.00;98912.98;1669377;84;21059;-63
2023/05/16 09:29:12;;;;;;;3.30;2.02;;;;;;;12.20;100.00;98910.40;1640428;85;21016;-64
2023/05/16 09:31:38;;;;;;;1.98;1.52;;;;;;;12.25;100.00;98908.31;1642715;85;21305;-64
2023/05/16 09:34:12;;;;;;;2.33;1.60;;;;;;;12.34;100.00;98911.26;1678355;83;20997;-64
2023/05/16 09:36:41;;;;;;;3.47;1.72;;;;;;;12.33;100.00;98905.19;1671051;84;21023;-64
2023/05/16 09:39:12;;;;;;;3.37;1.57;;;;;;;12.31;100.00;98918.37;1628950;85;21058;-63
2023/05/16 09:41:37;;;;;;;2.95;1.72;;;;;;;12.31;100.00;98918.37;1664507;84;21569;-63
2023/05/16 09:44:05;;;;;;;2.27;1.80;;;;;;;12.36;100.00;98919.86;1672236;84;20978;-66
2023/05/16 09:46:34;;;;;;;3.17;2.00;;;;;;;12.35;100.00;98927.32;1670437;84;21031;-63
2023/05/16 09:49:03;;;;;;;2.95;2.33;;;;;;;12.35;100.00;98927.32;1640910;85;20987;-64
2023/05/16 09:51:31;;;;;;;3.22;2.10;;;;;;;12.33;100.00;98926.61;1642322;85;20995;-65
2023/05/16 09:53:59;;;;;;;3.70;2.22;;;;;;;12.37;100.00;98933.30;1641131;85;22319;-64
2023/05/16 09:56:29;;;;;;;4.15;2.75;;;;;;;12.41;100.00;98938.72;1669784;84;21046;-64
2023/05/16 09:58:57;;;;;;;5.25;2.87;;;;;;;12.40;100.00;98942.25;1665056;84;21606;-64
2023/05/16 10:01:24;;;;;;;7.05;3.25;;;;;;;12.31;100.00;98928.84;1671759;84;20987;-63
2023/05/16 10:03:54;;;;;;;4.47;2.10;;;;;;;12.42;100.00;98922.05;1634481;86;21128;-62
2023/05/16 10:06:21;;;;;;;3.05;1.98;;;;;;;12.42;100.00;98922.05;1675858;83;21534;-62
2023/05/16 10:08:48;;;;;;;;;;;;;;;12.54;100.00;98948.70;1672601;84;21029;-63
2023/05/16 10:11:17;;;;;;;3.27;2.30;;;;;;;12.52;100.00;98957.16;1673078;84;20118;-63
2023/05/16 10:13:51;;;;;;;2.95;2.22;;;;;;;12.57;100.00;98968.14;1676621;84;21031;-63
2023/05/16 10:16:14;;;;;;;2.42;1.90;;;;;;;12.81;100.00;98967.43;1677956;83;21055;-63
2023/05/16 10:18:46;;;;;;;3.98;2.37;;;;;;;13.06;100.00;98972.66;1677356;84;21574;-63
2023/05/16 10:21:13;;;;;;;3.02;2.40;;;;;;;13.29;100.00;98975.48;1673184;84;20991;-63
2023/05/16 10:23:44;;;;;;;5.75;2.65;;;;;;;13.43;100.00;98981.90;1675011;84;21039;-62
2023/05/16 10:26:13;;;;;;;5.75;2.25;;;;;;;13.60;100.00;98986.78;1675305;83;21157;-62
2023/05/16 10:28:40;;;;;;;5.10;2.77;;;;;;;13.82;100.00;98973.44;1677913;84;21045;-64
2023/05/16 10:31:12;;;;;;;4.30;1.95;;;;;;;14.18;100.00;98975.16;1679918;84;21076;-65
2023/05/16 10:33:40;;;;;;;5.67;2.77;;;;;;;14.65;100.00;98972.59;1672579;84;21113;-63
2023/05/16 10:36:08;;;;;;;3.65;2.40;;;;;;;14.79;100.00;98967.11;1674603;84;21627;-62
2023/05/16 10:38:37;;;;;;;3.87;2.77;;;;;;;14.95;100.00;98967.58;1679180;83;21080;-62
2023/05/16 10:41:07;;;;;;;3.83;3.15;;;;;;;15.11;100.00;98961.15;1675277;84;20986;-63
2023/05/16 10:43:32;;;;;;;6.20;2.98;;;;;;;15.00;100.00;98968.06;1676857;84;21069;-64
2023/05/16 10:46:04;;;;;;;5.08;3.17;;;;;;;14.93;100.00;98961.62;1640060;86;20971;-64
2023/05/16 10:48:34;;;;;;;5.55;3.72;;;;;;;14.89;100.00;98960.17;1679503;84;21080;-64
2023/05/16 10:51:01;;;;;;;7.42;3.65;;;;;;;14.91;100.00;98974.05;1675998;84;21090;-63
2023/05/16 10:53:31;;;;;;;6.35;3.83;;;;;;;15.72;100.00;98964.21;1677486;84;21008;-63
2023/05/16 10:56:08;;;;;;;3.98;3.58;;;;;;;18.04;100.00;98973.05;1672815;84;21588;-63
2023/05/16 10:58:39;;;;;;;6.20;3.83;;;;;;;18.98;100.00;98970.56;1679922;84;21058;-63
2023/05/16 11:01:23;;;;;;;5.03;3.77;;;;;;;19.10;100.00;98972.57;1677082;84;21000;-64
2023/05/16 11:04:09;;;;;;;10.15;3.92;;;;;;;18.77;100.00;98968.63;1676673;84;20951;-64
2023/05/16 11:06:45;;;;;;;4.40;4.00;;;;;;;18.12;99.01;98978.97;1676332;84;21018;-64
2023/05/16 11:09:14;;;;;;;5.60;4.55;;;;;;;17.36;99.85;98978.63;1672755;84;21034;-63
2023/05/16 11:11:46;;;;;;;4.67;4.20;;;;;;;16.90;100.00;98976.02;1672799;84;20962;-62
2023/05/16 11:14:25;;;;;;;4.87;4.45;;;;;;;16.67;100.00;98973.98;1672704;84;21065;-62
2023/05/16 11:17:07;;;;;;;6.65;5.25;;;;;;;16.45;100.00;98986.31;1678064;84;22298;-61
2023/05/16 11:19:37;;;;;;;6.80;4.97;;;;;;;16.13;100.00;98983.69;1672709;84;21090;-62
2023/05/16 11:22:30;;;;;;;6.95;5.92;;;;;;;15.76;100.00;99003.78;1673814;84;21005;-62
2023/05/16 11:25:09;;;;;;;7.45;6.22;;;;;;;15.61;100.00;99012.41;1672899;84;21016;-63
2023/05/16 11:27:45;;;;;;;6.75;6.12;;;;;;;15.43;100.00;99017.34;1636976;86;21528;-62
2023/05/16 11:30:19;;;;;;;9.73;7.12;;;;;;;15.23;100.00;99020.66;1634793;86;21023;-63
2023/05/16 11:32:47;;;;;;;7.12;6.42;;;;;;;15.19;100.00;99033.70;1642333;86;21026;-63